< < Back
Terminal Aerodrome Forecast


Current Version              Previous Versions:   1  2  3  4  5  6  7  8  9  

Terminal Aerodrome Forecast

193
FTUS42 KTAE 240500
TAFABY
TAF
KABY 240520Z 2406/2506 00000KT P6SM SKC
      TEMPO 2409/2412 5SM BR
     FM241400 19006KT P6SM SCT060=



Latest METAR

361
SAUS70 KWBC 250100 RRI
MTRABY
METAR KABY 250053Z 00000KT 10SM -RA BKN065 OVC085 25/16 A2992 RMK AO2
RAB46 SLP130 P0000 T02500161


USA.gov is the U.S. government's official web portal to all federal, state and local government web resources and services.